Time;durP1;ratioP1;P1;durP2;ratioP2;P2;SDS_P1;SDS_P2;PMS_P1;PMS_P2;Temp;Humidity;BMP_temperature;BMP_pressure;BME280_temperature;BME280_humidity;BME280_pressure;Samples;Min_cycle;Max_cycle;Signal;HPM_P1;HPM_P2
2022/07/14 00:01:41;;;;;;;3.10;1.20;;;;;;;17.27;70.84;98792.94;25099;1310;3026828;-65
2022/07/14 00:04:10;;;;;;;5.20;1.40;;;;;;;17.23;70.67;98789.88;25054;1312;3051485;-64
2022/07/14 00:06:40;;;;;;;5.70;1.30;;;;;;;17.15;71.01;98789.91;25052;1313;3026543;-63
2022/07/14 00:09:09;;;;;;;4.60;1.90;;;;;;;17.05;70.97;98792.10;25103;1313;3026307;-63
2022/07/14 00:11:41;;;;;;;4.40;1.70;;;;;;;16.65;72.74;98794.55;25113;1313;3053487;-63
2022/07/14 00:14:10;;;;;;;2.80;1.20;;;;;;;16.37;74.82;98786.96;25079;1313;3026437;-63
2022/07/14 00:16:40;;;;;;;5.70;1.80;;;;;;;16.90;73.14;98782.13;25090;1313;3053299;-63
2022/07/14 00:19:09;;;;;;;3.30;1.50;;;;;;;17.19;72.11;98785.50;25117;1313;3026728;-63
2022/07/14 00:21:38;;;;;;;5.90;2.10;;;;;;;17.10;72.39;98783.21;25060;1313;3051062;-63
2022/07/14 00:24:11;;;;;;;5.50;2.10;;;;;;;16.77;74.23;98781.08;25118;1313;3026236;-64
2022/07/14 00:26:40;;;;;;;5.30;2.10;;;;;;;16.70;74.13;98778.35;25100;1312;3058865;-64
2022/07/14 00:29:09;;;;;;;4.50;2.00;;;;;;;16.46;75.51;98780.16;25081;1313;3026766;-63
2022/07/14 00:31:38;;;;;;;4.90;1.80;;;;;;;16.36;76.29;98778.59;25068;1312;3054430;-64
2022/07/14 00:34:07;;;;;;;8.10;1.90;;;;;;;16.59;76.12;98786.65;25099;1313;3026429;-64
2022/07/14 00:36:36;;;;;;;4.90;1.90;;;;;;;16.81;75.41;98777.28;25100;1313;3054050;-63
2022/07/14 00:39:05;;;;;;;5.90;2.20;;;;;;;16.84;75.11;98775.80;25092;1312;3028661;-62
2022/07/14 00:41:34;;;;;;;12.50;3.60;;;;;;;16.56;76.23;98773.88;25070;1313;3050765;-63
2022/07/14 00:44:04;;;;;;;3.70;2.00;;;;;;;16.37;76.99;98771.81;25082;1313;3026644;-62
2022/07/14 00:46:32;;;;;;;4.90;1.90;;;;;;;16.32;77.22;98767.48;25076;1312;3071420;-64
2022/07/14 00:49:02;;;;;;;5.50;2.50;;;;;;;16.53;77.13;98760.17;25022;1312;3026749;-61
2022/07/14 00:51:31;;;;;;;6.70;2.60;;;;;;;16.66;76.84;98759.81;25089;1313;3053074;-63
2022/07/14 00:54:00;;;;;;;5.40;3.10;;;;;;;16.52;77.53;98763.61;25052;1312;3028218;-62
2022/07/14 00:56:29;;;;;;;5.20;2.40;;;;;;;16.37;77.72;98761.38;25108;1312;3026623;-63
2022/07/14 00:58:58;;;;;;;5.80;2.20;;;;;;;16.15;78.83;98761.84;25053;1312;3052170;-63
2022/07/14 01:01:31;;;;;;;5.60;2.80;;;;;;;16.31;78.82;98761.41;25113;1313;3026546;-62
2022/07/14 01:04:00;;;;;;;6.80;2.90;;;;;;;16.74;77.37;98752.64;25065;1313;3052135;-63
2022/07/14 01:06:30;;;;;;;4.80;3.00;;;;;;;16.63;77.37;98755.65;25050;1313;3029572;-64
2022/07/14 01:09:01;;;;;;;5.90;3.00;;;;;;;16.35;78.46;98754.84;25101;1313;3027028;-65
2022/07/14 01:11:31;;;;;;;4.60;3.10;;;;;;;16.14;79.56;98749.21;25120;1313;3026250;-64
2022/07/14 01:14:03;;;;;;;4.70;2.10;;;;;;;16.10;80.28;98750.14;25082;1313;3027061;-62
2022/07/14 01:16:33;;;;;;;6.60;3.40;;;;;;;16.52;78.53;98752.99;25082;1313;3026870;-63
2022/07/14 01:19:05;;;;;;;10.40;3.00;;;;;;;16.81;77.44;98753.63;25114;1313;3026757;-65
2022/07/14 01:21:34;;;;;;;7.60;3.50;;;;;;;16.71;77.45;98754.03;25081;1313;3027008;-66
2022/07/14 01:24:04;;;;;;;4.70;3.50;;;;;;;16.51;77.84;98760.88;25106;1313;3026501;-62
2022/07/14 01:26:34;;;;;;;7.20;3.30;;;;;;;16.21;79.50;98763.94;25102;1313;3058531;-61
2022/07/14 01:29:05;;;;;;;5.70;2.90;;;;;;;16.20;79.82;98758.89;25171;1313;3026906;-63
2022/07/14 01:31:34;;;;;;;5.00;2.10;;;;;;;16.58;78.64;98757.58;25064;1313;3026175;-64
2022/07/14 01:34:03;;;;;;;7.70;2.90;;;;;;;16.67;77.83;98754.19;25079;1313;3027491;-62
2022/07/14 01:36:32;;;;;;;3.90;2.90;;;;;;;16.53;78.17;98753.81;25087;1315;3026377;-62
2022/07/14 01:39:03;;;;;;;3.90;3.00;;;;;;;16.30;79.09;98757.64;25124;1313;3054115;-62
2022/07/14 01:41:32;;;;;;;3.50;2.40;;;;;;;16.34;79.07;98758.50;24999;1316;3026650;-64
2022/07/14 01:44:02;;;;;;;5.30;2.20;;;;;;;16.21;79.78;98763.42;25047;1313;3027107;-61
2022/07/14 01:46:32;;;;;;;3.60;2.30;;;;;;;16.79;78.03;98755.80;25076;1313;3026401;-63
2022/07/14 01:49:05;;;;;;;6.10;2.70;;;;;;;16.96;76.86;98753.39;25059;1312;3028164;-68
2022/07/14 01:51:34;;;;;;;5.40;2.90;;;;;;;16.79;77.43;98750.56;25052;1314;3026837;-63
2022/07/14 01:54:04;;;;;;;6.40;3.30;;;;;;;16.59;78.07;98756.75;25024;1312;3028518;-65
2022/07/14 01:56:39;;;;;;;10.60;3.30;;;;;;;16.35;79.09;98754.44;25030;1312;3026518;-62
2022/07/14 01:59:08;;;;;;;6.60;2.50;;;;;;;16.23;79.97;98753.69;25025;1313;3054149;-64
2022/07/14 02:01:40;;;;;;;5.40;2.80;;;;;;;16.65;78.60;98746.29;25153;1312;3026469;-66
2022/07/14 02:04:15;;;;;;;6.80;2.90;;;;;;;16.88;77.47;98746.94;25073;1312;3026485;-65
2022/07/14 02:06:52;;;;;;;5.30;3.00;;;;;;;16.72;77.80;98749.01;25066;1312;3052181;-64
2022/07/14 02:12:46;;;;;;;3.40;2.30;;;;;;;16.27;79.99;98758.11;25076;1312;3054959;-70
2022/07/14 02:15:16;;;;;;;4.00;2.60;;;;;;;16.72;78.61;98761.40;25058;1315;3026347;-70
2022/07/14 02:17:45;;;;;;;5.20;2.90;;;;;;;16.95;77.33;98762.88;25114;1313;3026376;-68
2022/07/14 02:20:14;;;;;;;4.50;2.70;;;;;;;16.90;77.38;98767.64;25169;1312;3054167;-70
2022/07/14 02:22:43;;;;;;;5.60;3.10;;;;;;;16.62;78.60;98760.60;25110;1312;3027803;-64
2022/07/14 02:25:12;;;;;;;6.60;3.20;;;;;;;16.56;78.76;98765.39;24680;1312;3054466;-66
2022/07/14 02:27:42;;;;;;;5.20;2.40;;;;;;;16.33;79.97;98762.85;25171;1313;3026867;-68
2022/07/14 02:30:11;;;;;;;4.60;2.30;;;;;;;16.79;78.83;98763.52;25108;1312;3029136;-68
2022/07/14 02:32:41;;;;;;;7.40;2.60;;;;;;;17.11;77.33;98760.48;25032;1312;3054242;-65
2022/07/14 02:35:10;;;;;;;4.60;2.70;;;;;;;17.10;76.72;98763.02;25063;1312;3026899;-66
2022/07/14 02:37:39;;;;;;;6.10;3.30;;;;;;;16.93;77.41;98765.52;25099;1315;3026430;-67
2022/07/14 02:40:09;;;;;;;4.50;3.10;;;;;;;16.65;78.54;98774.73;25038;1313;3054494;-62
2022/07/14 02:42:39;;;;;;;4.40;2.40;;;;;;;16.59;79.22;98768.09;25083;1315;3029005;-64
2022/07/14 02:45:09;;;;;;;5.30;2.30;;;;;;;17.12;78.12;98763.48;25012;1313;3027597;-63
2022/07/14 02:47:40;;;;;;;6.50;3.20;;;;;;;17.33;76.71;98761.42;25058;1309;3027091;-62
2022/07/14 02:50:10;;;;;;;8.80;3.40;;;;;;;17.20;77.08;98763.08;25113;1313;3026707;-65
2022/07/14 02:52:41;;;;;;;11.20;3.50;;;;;;;16.98;77.62;98764.48;25049;1315;3056614;-64
2022/07/14 02:55:10;;;;;;;3.90;3.00;;;;;;;16.73;78.48;98762.11;25081;1313;3026455;-66
2022/07/14 02:57:42;;;;;;;5.40;2.60;;;;;;;16.65;78.94;98762.38;25063;1312;3050555;-62
2022/07/14 03:00:12;;;;;;;5.90;3.30;;;;;;;17.09;77.93;98758.28;25146;1312;3026779;-63
2022/07/14 03:02:42;;;;;;;6.00;3.20;;;;;;;17.50;75.84;98758.30;25131;1312;3051515;-66
2022/07/14 03:05:14;;;;;;;6.20;3.30;;;;;;;17.22;76.70;98757.55;25139;1312;3027215;-65
2022/07/14 03:07:43;;;;;;;9.70;4.10;;;;;;;16.96;77.47;98755.84;25130;1312;3028033;-65
2022/07/14 03:10:12;;;;;;;7.30;3.30;;;;;;;16.96;77.72;98752.34;25124;1312;3026638;-65
2022/07/14 03:12:42;;;;;;;6.20;2.90;;;;;;;17.28;77.07;98750.08;25100;1312;3055246;-65
2022/07/14 03:15:11;;;;;;;6.60;3.00;;;;;;;17.34;76.41;98748.98;25044;1315;3027099;-64
2022/07/14 03:17:40;;;;;;;4.80;3.10;;;;;;;17.28;76.43;98751.08;25046;1315;3026506;-67
2022/07/14 03:20:09;;;;;;;5.70;3.50;;;;;;;17.19;76.84;98756.23;25108;1315;3054048;-65
2022/07/14 03:22:40;;;;;;;6.10;3.50;;;;;;;16.91;77.67;98759.20;25172;1312;3027158;-67
2022/07/14 03:25:15;;;;;;;5.90;2.70;;;;;;;16.88;77.81;98753.98;25083;1312;3052405;-67
2022/07/14 03:27:46;;;;;;;4.20;2.50;;;;;;;17.54;76.01;98753.45;25103;1314;3026945;-64
2022/07/14 03:30:16;;;;;;;5.60;3.40;;;;;;;17.68;74.98;98758.06;25140;1312;3026246;-64
2022/07/14 03:32:46;;;;;;;7.70;3.20;;;;;;;17.70;74.99;98761.83;25088;1312;3029043;-65
2022/07/14 03:35:15;;;;;;;4.30;3.50;;;;;;;17.59;74.75;98764.85;25107;1315;3027893;-65
2022/07/14 03:37:44;;;;;;;8.80;3.50;;;;;;;17.39;75.61;98770.27;25068;1315;3052205;-63
2022/07/14 03:40:14;;;;;;;4.40;2.80;;;;;;;17.24;76.26;98768.83;25224;1312;3026850;-63
2022/07/14 03:42:44;;;;;;;4.80;2.90;;;;;;;17.49;75.71;98773.66;25324;1316;3025909;-65
2022/07/14 03:45:15;;;;;;;4.90;3.10;;;;;;;17.89;73.37;98771.59;25369;1313;3026534;-62
2022/07/14 03:47:44;;;;;;;5.80;3.10;;;;;;;17.60;74.05;98782.94;25226;1312;3027616;-66
2022/07/14 03:50:13;;;;;;;5.20;3.10;;;;;;;17.50;74.37;98784.67;25093;1316;3029326;-65
2022/07/14 03:52:43;;;;;;;5.40;3.40;;;;;;;17.44;74.25;98787.07;25142;1314;3027524;-66
2022/07/14 03:55:12;;;;;;;5.70;2.40;;;;;;;17.34;74.98;98785.23;25103;1318;3052197;-67
2022/07/14 03:57:42;;;;;;;7.80;3.10;;;;;;;17.70;74.62;98781.95;25181;1312;3028207;-66
2022/07/14 04:00:12;;;;;;;4.10;3.00;;;;;;;17.91;73.06;98784.79;25102;1312;3026585;-67
2022/07/14 04:02:46;;;;;;;5.80;3.20;;;;;;;17.87;73.10;98790.54;25065;1311;3053336;-68
2022/07/14 04:05:23;;;;;;;9.10;3.90;;;;;;;17.60;72.81;98798.21;25070;1312;3054306;-66
2022/07/14 04:07:52;;;;;;;7.70;3.70;;;;;;;17.43;73.18;98793.92;25053;1312;3027410;-65
2022/07/14 04:10:22;;;;;;;6.50;4.00;;;;;;;17.24;74.17;98797.75;25152;1312;3026902;-68
2022/07/14 04:12:52;;;;;;;13.30;4.10;;;;;;;17.12;74.88;98790.58;25086;1312;3027535;-69
2022/07/14 04:15:23;;;;;;;9.30;4.30;;;;;;;17.38;73.90;98793.69;25050;1315;3068657;-68
2022/07/14 04:17:54;;;;;;;7.50;4.20;;;;;;;17.74;72.37;98786.02;25080;1312;3027595;-66
2022/07/14 04:20:24;;;;;;;7.00;4.30;;;;;;;17.47;73.57;98786.73;25132;1312;3026348;-68
2022/07/14 04:22:53;;;;;;;11.90;4.70;;;;;;;17.47;73.43;98787.17;25095;1312;3026954;-66
2022/07/14 04:25:22;;;;;;;6.80;4.40;;;;;;;17.47;73.13;98782.17;25118;1316;3027571;-69
2022/07/14 04:27:51;;;;;;;14.70;3.50;;;;;;;17.46;73.92;98780.17;25070;1315;3026872;-70
2022/07/14 04:30:20;;;;;;;7.20;3.80;;;;;;;17.91;72.41;98776.36;25053;1315;3054627;-64
2022/07/14 04:32:49;;;;;;;5.90;3.70;;;;;;;18.19;71.32;98772.42;25118;1312;3026425;-67
2022/07/14 04:35:20;;;;;;;11.10;4.40;;;;;;;18.27;70.84;98771.07;25074;1312;3052221;-69
2022/07/14 04:37:49;;;;;;;12.70;4.60;;;;;;;17.96;71.45;98777.39;25165;1312;3026918;-68
2022/07/14 04:40:30;;;;;;;7.10;4.50;;;;;;;17.85;72.24;98780.47;25067;1312;3052248;-65
2022/07/14 04:43:01;;;;;;;6.50;4.20;;;;;;;17.75;72.55;98785.80;25104;1312;3027962;-65
2022/07/14 04:45:32;;;;;;;6.20;3.90;;;;;;;17.58;73.17;98785.63;25100;1312;3028323;-67
2022/07/14 04:48:03;;;;;;;6.10;4.30;;;;;;;18.07;72.01;98786.33;25177;1312;3027073;-63
2022/07/14 04:53:21;;;;;;;7.60;4.00;;;;;;;18.29;70.50;98797.60;25137;1313;3054225;-64
2022/07/14 04:56:10;;;;;;;7.00;4.70;;;;;;;18.13;70.93;98794.79;25040;1315;3051784;-63
2022/07/14 04:58:49;;;;;;;6.00;4.60;;;;;;;18.03;71.75;98797.80;25118;1316;3071669;-65
2022/07/14 05:01:19;;;;;;;6.30;4.30;;;;;;;17.94;71.76;98807.17;25094;1312;3026105;-68
2022/07/14 05:03:48;;;;;;;9.20;3.80;;;;;;;17.90;71.94;98805.08;25040;1315;3026625;-65
2022/07/14 05:06:18;;;;;;;10.00;4.60;;;;;;;18.51;70.77;98807.09;25115;1312;3070257;-69
2022/07/14 05:08:47;;;;;;;6.90;4.10;;;;;;;18.58;69.85;98802.77;25038;1315;3029028;-65
2022/07/14 05:11:17;;;;;;;13.00;4.70;;;;;;;18.45;70.11;98798.77;25092;1316;3027599;-63
2022/07/14 05:13:47;;;;;;;11.20;5.00;;;;;;;18.25;71.20;98803.89;25096;1312;3026198;-64
2022/07/14 05:16:16;;;;;;;9.80;4.70;;;;;;;18.07;71.64;98803.20;25083;1315;3028421;-65
2022/07/14 05:18:46;;;;;;;11.40;4.90;;;;;;;17.99;71.87;98798.88;25120;1312;3051510;-69
2022/07/14 05:21:15;;;;;;;6.00;3.10;;;;;;;17.87;72.31;98808.30;25059;1312;3027314;-66
2022/07/14 05:23:44;;;;;;;8.90;3.60;;;;;;;18.40;71.51;98801.43;25091;1315;3026144;-68
2022/07/14 05:26:17;;;;;;;7.00;3.90;;;;;;;18.94;68.99;98801.66;25056;1312;3055257;-69
2022/07/14 05:28:47;;;;;;;5.60;4.20;;;;;;;18.92;68.65;98807.17;25080;1312;3026608;-68
2022/07/14 05:31:16;;;;;;;19.30;4.30;;;;;;;18.71;69.13;98816.52;25066;1315;3026613;-69
2022/07/14 05:33:49;;;;;;;7.30;4.00;;;;;;;18.54;69.80;98813.33;25039;1315;3028902;-70
2022/07/14 05:36:18;;;;;;;6.10;4.00;;;;;;;18.46;70.50;98810.80;25086;1315;3026762;-68
2022/07/14 05:38:47;;;;;;;5.20;4.10;;;;;;;18.40;70.45;98810.54;25070;1318;3056054;-67
2022/07/14 05:41:19;;;;;;;8.60;3.60;;;;;;;18.41;70.17;98810.95;25007;1315;3026642;-72
2022/07/14 05:43:49;;;;;;;4.20;3.50;;;;;;;18.71;69.59;98800.04;25198;1313;3027269;-71
2022/07/14 05:46:18;;;;;;;8.40;3.50;;;;;;;18.84;68.91;98800.77;25155;1312;3026562;-66
2022/07/14 05:48:47;;;;;;;9.10;3.70;;;;;;;19.02;67.80;98800.17;25092;1312;3052283;-68
2022/07/14 05:51:17;;;;;;;8.80;3.60;;;;;;;18.88;68.03;98807.63;25102;1313;3028088;-66
2022/07/14 05:53:50;;;;;;;8.20;3.90;;;;;;;18.89;67.92;98799.43;25075;1312;3058842;-65
2022/07/14 05:56:40;;;;;;;9.70;4.00;;;;;;;18.76;68.60;98806.77;25044;1312;3049868;-65
2022/07/14 05:59:09;;;;;;;6.30;2.40;;;;;;;18.83;68.37;98807.98;25108;1316;3027507;-65
2022/07/14 06:01:39;;;;;;;5.40;2.70;;;;;;;19.51;66.15;98809.61;25130;1315;3028163;-68
2022/07/14 06:04:10;;;;;;;10.00;3.10;;;;;;;19.60;65.18;98806.59;25044;1315;3027970;-69
2022/07/14 06:06:45;;;;;;;8.20;3.30;;;;;;;19.43;65.53;98810.73;25158;1312;3026905;-66
2022/07/14 06:09:15;;;;;;;7.60;3.00;;;;;;;19.21;65.91;98812.10;25133;1315;3051690;-65
2022/07/14 06:11:45;;;;;;;5.20;3.00;;;;;;;19.07;66.32;98814.94;25185;1315;3026492;-68
2022/07/14 06:14:15;;;;;;;4.80;3.00;;;;;;;18.84;66.89;98818.00;25262;1312;3027590;-68
2022/07/14 06:17:09;;;;;;;6.60;2.70;;;;;;;18.65;67.60;98815.70;25499;1313;3052391;-69
2022/07/14 06:19:39;;;;;;;4.70;2.70;;;;;;;18.74;67.21;98814.27;25202;1315;3026630;-71
2022/07/14 06:22:09;;;;;;;10.20;2.10;;;;;;;18.70;67.89;98806.54;25172;1315;3026415;-69
2022/07/14 06:24:38;;;;;;;3.90;2.30;;;;;;;19.31;66.79;98809.88;25161;1312;3026507;-69
2022/07/14 06:27:08;;;;;;;4.70;2.50;;;;;;;19.81;64.45;98802.67;25141;1313;3026997;-70
2022/07/14 06:29:38;;;;;;;5.60;2.30;;;;;;;19.89;63.90;98806.59;25219;1312;3027090;-68
2022/07/14 06:32:07;;;;;;;4.20;2.50;;;;;;;19.75;63.50;98804.35;25132;1315;3029250;-67
2022/07/14 06:34:37;;;;;;;3.60;2.70;;;;;;;19.59;64.19;98800.27;25159;1312;3049065;-71
2022/07/14 06:37:34;;;;;;;6.70;3.20;;;;;;;19.46;64.76;98803.29;25170;1313;3054689;-72
2022/07/14 06:40:06;;;;;;;4.90;2.60;;;;;;;19.27;65.38;98812.77;25182;1313;3026833;-74
2022/07/14 06:42:36;;;;;;;4.60;3.30;;;;;;;19.17;65.88;98804.30;25146;1315;3027152;-68
2022/07/14 06:45:25;;;;;;;6.50;2.90;;;;;;;19.00;65.99;98804.05;25122;1312;3049473;-71
2022/07/14 06:47:56;;;;;;;8.80;2.90;;;;;;;18.94;66.50;98804.87;25198;1312;3026486;-75
2022/07/14 06:50:25;;;;;;;3.10;2.10;;;;;;;19.14;66.37;98810.06;25132;1315;3029915;-72
2022/07/14 06:52:56;;;;;;;5.10;2.50;;;;;;;19.99;64.17;98808.02;25170;1318;3048223;-70
2022/07/14 06:55:25;;;;;;;5.80;2.30;;;;;;;20.32;61.99;98811.47;25125;1315;3026189;-72
2022/07/14 06:57:54;;;;;;;8.10;2.30;;;;;;;20.40;61.05;98810.91;25180;1315;3058626;-71
2022/07/14 07:00:23;;;;;;;6.30;2.60;;;;;;;20.27;60.34;98824.33;25142;1312;3028371;-67
2022/07/14 07:02:52;;;;;;;7.90;2.40;;;;;;;20.02;60.85;98816.79;25239;1312;3051834;-72
2022/07/14 07:08:09;;;;;;;5.20;2.40;;;;;;;19.91;62.23;98819.55;25171;1312;3055444;-73
2022/07/14 07:10:56;;;;;;;5.90;2.10;;;;;;;19.90;61.81;98819.81;25172;1313;3052746;-70
2022/07/14 07:13:29;;;;;;;4.10;2.20;;;;;;;19.81;62.06;98824.71;25177;1312;3026543;-70
2022/07/14 07:16:04;;;;;;;5.60;2.00;;;;;;;19.68;62.26;98826.32;25166;1312;3049566;-71
2022/07/14 07:18:34;;;;;;;6.00;2.00;;;;;;;19.53;62.65;98834.13;25133;1312;3052987;-68
2022/07/14 07:21:03;;;;;;;5.10;2.30;;;;;;;19.45;62.50;98842.79;25152;1313;3026803;-69
2022/07/14 07:23:32;;;;;;;8.90;1.90;;;;;;;19.30;63.45;98842.14;25194;1312;3027007;-70
2022/07/14 07:26:01;;;;;;;8.30;3.20;;;;;;;19.32;63.32;98841.54;25145;1312;3026119;-71
2022/07/14 07:28:30;;;;;;;5.50;2.30;;;;;;;19.20;64.01;98848.33;25168;1312;3053988;-71
2022/07/14 07:30:59;;;;;;;5.20;2.20;;;;;;;19.20;64.15;98846.58;25157;1312;3026720;-67
2022/07/14 07:33:28;;;;;;;5.50;2.20;;;;;;;19.29;63.66;98834.91;25172;1312;3055295;-70
2022/07/14 07:35:58;;;;;;;9.60;2.50;;;;;;;19.11;65.21;98835.09;25145;1312;3026482;-69
2022/07/14 07:38:27;;;;;;;2.90;2.10;;;;;;;19.38;64.43;98832.72;25146;1312;3049718;-70
2022/07/14 07:40:56;;;;;;;4.80;2.20;;;;;;;19.66;63.45;98843.19;25264;1312;3027190;-69
2022/07/14 07:43:26;;;;;;;6.00;2.20;;;;;;;19.83;62.88;98834.59;25152;1312;3058502;-69
2022/07/14 07:45:55;;;;;;;8.70;2.70;;;;;;;20.08;62.31;98831.71;25161;1312;3026205;-67
2022/07/14 07:48:23;;;;;;;6.40;2.20;;;;;;;20.26;61.24;98835.27;25128;1312;3028892;-67
2022/07/14 07:50:55;;;;;;;5.40;2.20;;;;;;;20.23;61.05;98842.73;25192;1312;3055577;-68
2022/07/14 07:53:24;;;;;;;5.70;2.30;;;;;;;20.20;60.80;98840.91;25150;1313;3028095;-68
2022/07/14 07:55:53;;;;;;;7.90;2.20;;;;;;;20.06;60.22;98847.98;25165;1312;3026470;-73
2022/07/14 07:58:22;;;;;;;5.40;2.00;;;;;;;19.98;60.50;98851.19;25175;1312;3059421;-70
2022/07/14 08:00:52;;;;;;;4.80;1.90;;;;;;;20.01;60.10;98843.48;25127;1312;3029487;-69
2022/07/14 08:03:21;;;;;;;2.50;1.70;;;;;;;19.79;60.01;98844.83;25158;1312;3053721;-70
2022/07/14 08:05:50;;;;;;;3.30;1.90;;;;;;;19.61;60.28;98851.25;25245;1312;3026259;-71
2022/07/14 08:08:20;;;;;;;6.40;1.90;;;;;;;19.65;60.34;98848.36;25193;1312;3055068;-72
2022/07/14 08:10:53;;;;;;;5.50;2.20;;;;;;;19.58;59.55;98857.05;25235;1312;3026807;-72
2022/07/14 08:13:23;;;;;;;5.60;1.90;;;;;;;19.53;59.34;98851.61;25123;1318;3028691;-67
2022/07/14 08:15:52;;;;;;;3.90;2.10;;;;;;;19.46;60.95;98859.33;25153;1312;3026352;-68
2022/07/14 08:18:22;;;;;;;5.80;2.10;;;;;;;19.35;62.45;98864.64;25223;1313;3026698;-69
2022/07/14 08:20:52;;;;;;;7.70;2.10;;;;;;;19.07;65.72;98871.29;25361;1313;3026216;-70
2022/07/14 08:23:21;;;;;;;3.80;1.80;;;;;;;18.99;66.57;98873.19;25609;1313;3049606;-71
2022/07/14 08:25:50;;;;;;;4.40;1.40;;;;;;;19.02;67.01;98871.86;25668;1312;3026843;-65
2022/07/14 08:28:19;;;;;;;2.90;1.30;;;;;;;19.60;65.05;98867.89;25438;1312;3055570;-70
2022/07/14 08:30:48;;;;;;;5.10;1.60;;;;;;;20.18;62.32;98875.25;25190;1315;3026226;-69
2022/07/14 08:33:18;;;;;;;2.20;1.30;;;;;;;20.31;61.87;98875.02;25153;1312;3026521;-68
2022/07/14 08:35:48;;;;;;;4.50;1.20;;;;;;;20.48;61.38;98878.75;25227;1313;3026557;-71
2022/07/14 08:38:18;;;;;;;5.50;1.50;;;;;;;20.21;60.62;98877.61;25143;1312;3026718;-65
2022/07/14 08:40:47;;;;;;;8.00;1.60;;;;;;;20.12;61.13;98884.40;25171;1312;3026881;-67
2022/07/14 08:43:18;;;;;;;4.90;1.30;;;;;;;19.99;60.58;98885.30;25239;1312;3051936;-69
2022/07/14 08:45:47;;;;;;;8.90;2.20;;;;;;;19.69;61.08;98889.92;25150;1312;3026468;-68
2022/07/14 08:48:16;;;;;;;3.60;1.50;;;;;;;19.40;62.26;98899.60;25140;1315;3026584;-70
2022/07/14 08:50:45;;;;;;;4.60;1.40;;;;;;;19.05;64.16;98916.23;25094;1313;3049596;-69
2022/07/14 08:53:14;;;;;;;3.00;1.20;;;;;;;18.94;66.05;98905.67;25068;1315;3026348;-70
2022/07/14 08:55:46;;;;;;;4.80;1.70;;;;;;;18.97;66.69;98900.96;25083;1312;3052538;-67
2022/07/14 08:58:15;;;;;;;2.70;1.90;;;;;;;19.04;67.05;98902.02;25184;1312;3026125;-66
2022/07/14 09:00:43;;;;;;;1.80;1.30;;;;;;;19.01;67.22;98906.80;25150;1312;3027065;-69
2022/07/14 09:03:12;;;;;;;2.60;1.70;;;;;;;19.59;65.38;98910.10;25200;1312;3055292;-66
2022/07/14 09:05:42;;;;;;;5.40;1.90;;;;;;;20.12;63.70;98903.63;25171;1312;3026777;-69
2022/07/14 09:08:13;;;;;;;4.00;1.70;;;;;;;20.51;62.52;98899.15;25178;1312;3026745;-70
2022/07/14 09:10:43;;;;;;;4.50;1.80;;;;;;;20.62;61.88;98903.66;25178;1312;3027125;-68
2022/07/14 09:13:20;;;;;;;3.70;1.60;;;;;;;20.57;60.08;98902.27;25168;1312;3028075;-70
2022/07/14 09:15:50;;;;;;;1.90;1.20;;;;;;;20.28;60.80;98904.73;25172;1312;3052342;-68
2022/07/14 09:18:25;;;;;;;3.70;1.20;;;;;;;19.95;61.62;98907.11;25093;1315;3026941;-71
2022/07/14 09:20:54;;;;;;;;;;;;;;;19.98;61.08;98914.38;25132;1312;3053236;-73
2022/07/14 09:23:30;;;;;;;1.30;0.90;;;;;;;19.72;61.72;98923.08;25161;1312;3027908;-70
2022/07/14 09:26:17;;;;;;;1.50;1.00;;;;;;;19.41;63.87;98925.21;25157;1312;3050446;-72
2022/07/14 09:28:50;;;;;;;4.30;1.20;;;;;;;19.23;64.92;98915.98;25165;1313;3068966;-66
2022/07/14 09:31:29;;;;;;;3.10;1.70;;;;;;;19.44;63.28;98926.73;25166;1312;3048529;-70
2022/07/14 09:34:00;;;;;;;2.20;1.60;;;;;;;19.40;64.84;98921.31;25172;1312;3052133;-70
2022/07/14 09:36:30;;;;;;;3.10;2.00;;;;;;;19.53;64.56;98925.05;25171;1312;3026002;-71
2022/07/14 09:39:09;;;;;;;3.70;2.30;;;;;;;19.70;63.68;98935.85;25165;1312;3026216;-69
2022/07/14 09:41:49;;;;;;;6.00;2.30;;;;;;;19.78;64.11;98929.86;25141;1312;3050049;-71
2022/07/14 09:44:19;;;;;;;6.00;2.00;;;;;;;19.79;64.78;98931.35;25155;1312;3052877;-67
2022/07/14 09:46:54;;;;;;;5.70;1.70;;;;;;;20.60;62.64;98936.48;25213;1312;3027271;-70
2022/07/14 09:49:25;;;;;;;4.40;1.90;;;;;;;20.88;59.88;98945.94;25170;1312;3070720;-68
2022/07/14 09:51:56;;;;;;;3.20;1.70;;;;;;;20.93;59.30;98935.15;25237;1312;3029360;-72
2022/07/14 09:54:48;;;;;;;4.30;1.90;;;;;;;21.08;58.25;98930.17;25145;1312;3027168;-69
2022/07/14 09:57:19;;;;;;;3.80;1.90;;;;;;;21.38;57.36;98932.52;25113;1315;3052761;-70
2022/07/14 09:59:50;;;;;;;4.10;1.60;;;;;;;21.53;56.27;98933.02;25156;1312;3029952;-70
2022/07/14 10:02:24;;;;;;;4.50;1.80;;;;;;;21.45;56.27;98937.66;25163;1312;3026493;-72
2022/07/14 10:04:55;;;;;;;9.60;2.00;;;;;;;21.29;56.17;98932.33;25151;1312;3054143;-69
2022/07/14 10:07:25;;;;;;;6.80;1.80;;;;;;;21.29;56.12;98934.48;25163;1312;3026664;-69
2022/07/14 10:10:20;;;;;;;9.50;2.10;;;;;;;21.32;56.50;98934.99;25163;1312;3026072;-68
2022/07/14 10:12:50;;;;;;;5.10;2.10;;;;;;;21.22;56.77;98947.50;25244;1312;3055860;-69
2022/07/14 10:15:19;;;;;;;3.50;2.00;;;;;;;21.18;57.04;98942.48;25163;1312;3029037;-70
2022/07/14 10:17:48;;;;;;;4.10;1.50;;;;;;;21.16;56.97;98951.64;25169;1312;3049198;-68
2022/07/14 10:20:19;;;;;;;2.50;1.70;;;;;;;21.19;56.42;98947.52;25136;1312;3026804;-71
2022/07/14 10:22:49;;;;;;;2.40;1.30;;;;;;;21.34;55.60;98946.94;25176;1312;3027412;-71
2022/07/14 10:25:18;;;;;;;5.80;1.90;;;;;;;21.58;54.99;98941.48;25172;1312;3026397;-67
2022/07/14 10:27:47;;;;;;;3.80;1.30;;;;;;;21.38;55.47;98935.69;25193;1312;3026579;-68
2022/07/14 10:30:16;;;;;;;4.20;1.70;;;;;;;21.24;54.92;98948.25;25199;1312;3053601;-70
2022/07/14 10:32:56;;;;;;;7.10;1.30;;;;;;;21.09;54.07;98944.95;25089;1315;3026521;-71
2022/07/14 10:35:33;;;;;;;2.50;1.20;;;;;;;20.97;53.74;98943.77;25185;1311;3053101;-70
2022/07/14 10:38:22;;;;;;;2.20;1.10;;;;;;;20.85;53.92;98962.30;25196;1312;3051882;-70
2022/07/14 10:40:59;;;;;;;5.00;1.30;;;;;;;20.84;53.51;98955.88;25101;1312;3070188;-71
2022/07/14 10:43:59;;;;;;;7.90;1.50;;;;;;;20.74;53.01;98963.36;25170;1312;3051244;-72
2022/07/14 10:46:45;;;;;;;4.10;1.00;;;;;;;20.80;52.96;98958.83;25162;1312;3055341;-69
2022/07/14 10:49:15;;;;;;;8.60;1.00;;;;;;;20.88;52.99;98961.33;25193;1311;3052491;-73
2022/07/14 10:51:49;;;;;;;3.30;1.20;;;;;;;20.83;53.13;98963.84;25177;1312;3026735;-69
2022/07/14 10:54:24;;;;;;;;;;;;;;;20.95;52.91;98958.16;25193;1312;3049108;-70
2022/07/14 10:57:13;;;;;;;3.50;1.50;;;;;;;21.09;53.74;98963.81;25133;1312;3055465;-71
2022/07/14 10:59:44;;;;;;;2.90;1.30;;;;;;;21.34;53.59;98960.90;25149;1315;3051542;-66
2022/07/14 11:02:13;;;;;;;3.50;1.40;;;;;;;21.48;53.13;98969.05;25122;1312;3026907;-71
2022/07/14 11:07:46;;;;;;;2.10;1.50;;;;;;;21.63;53.56;98949.83;25163;1312;3053825;-73
2022/07/14 11:10:18;;;;;;;2.70;1.50;;;;;;;21.76;52.38;98952.83;25127;1315;3070147;-69
2022/07/14 11:13:03;;;;;;;4.10;1.50;;;;;;;21.95;51.67;98949.95;25181;1312;3027603;-71
2022/07/14 11:15:38;;;;;;;6.90;1.70;;;;;;;22.07;51.83;98952.21;25188;1312;3054411;-69
2022/07/14 11:18:29;;;;;;;5.70;1.80;;;;;;;22.19;51.37;98944.06;25138;1312;3026833;-72
2022/07/14 11:21:05;;;;;;;4.20;1.70;;;;;;;22.36;50.76;98957.21;25171;1312;3058204;-71
2022/07/14 11:23:36;;;;;;;4.50;1.60;;;;;;;22.31;50.72;98947.52;25120;1312;3049571;-71
2022/07/14 11:26:07;;;;;;;6.30;1.20;;;;;;;22.59;49.88;98960.60;25153;1312;3026366;-73
2022/07/14 11:28:49;;;;;;;3.90;1.40;;;;;;;22.51;48.68;98957.67;25199;1312;3026703;-72
2022/07/14 11:31:44;;;;;;;4.20;1.60;;;;;;;22.71;48.19;98942.40;25114;1312;3068188;-70
2022/07/14 11:37:16;;;;;;;3.80;1.90;;;;;;;22.88;47.32;98961.65;25124;1315;3055135;-72
2022/07/14 11:39:45;;;;;;;3.50;1.40;;;;;;;22.40;48.14;98957.13;25180;1313;3026902;-70
2022/07/14 11:42:16;;;;;;;3.30;1.40;;;;;;;22.36;48.40;98964.42;25162;1312;3027038;-73
2022/07/14 11:44:51;;;;;;;5.30;1.40;;;;;;;22.01;48.50;98964.37;25151;1312;3026656;-71
2022/07/14 11:47:23;;;;;;;3.70;1.20;;;;;;;22.12;48.80;98973.23;25248;1312;3052580;-70
2022/07/14 11:49:55;;;;;;;2.90;1.00;;;;;;;22.16;47.29;98980.66;25130;1312;3026703;-72
2022/07/14 11:52:32;;;;;;;3.60;1.10;;;;;;;22.44;45.98;98959.41;25213;1312;3028454;-72